Time;durP1;ratioP1;P1;durP2;ratioP2;P2;SDS_P1;SDS_P2;PMS_P1;PMS_P2;Temp;Humidity;BMP_temperature;BMP_pressure;BME280_temperature;BME280_humidity;BME280_pressure;Samples;Min_cycle;Max_cycle;Signal;HPM_P1;HPM_P2
2022/12/09 00:01:09;;;;;;;130.50;26.17;;;;;;;-1.17;100.00;100861.28;5003592;28;20234;-73
2022/12/09 00:03:34;;;;;;;152.43;28.67;;;;;;;-1.32;100.00;100858.63;5007556;28;20245;-74
2022/12/09 00:06:13;;;;;;;102.63;27.00;;;;;;;-1.17;100.00;100858.78;5005297;28;20187;-73
2022/12/09 00:08:38;;;;;;;113.07;26.53;;;;;;;-1.13;100.00;100861.59;4998270;28;20271;-75
2022/12/09 00:11:05;;;;;;;153.67;29.70;;;;;;;-1.22;100.00;100863.50;5009917;28;20297;-75
2022/12/09 00:13:30;;;;;;;104.83;27.33;;;;;;;-1.14;100.00;100853.97;5008965;28;20194;-73
2022/12/09 00:15:56;;;;;;;120.60;29.90;;;;;;;-1.11;100.00;100852.50;4998382;28;20841;-73
2022/12/09 00:18:21;;;;;;;94.37;27.67;;;;;;;-1.07;100.00;100856.09;5009427;28;20206;-75
2022/12/09 00:20:47;;;;;;;119.07;30.47;;;;;;;-1.06;100.00;100856.19;5013396;28;20273;-72
2022/12/09 00:23:12;;;;;;;105.43;29.30;;;;;;;-1.02;100.00;100864.78;5005405;28;20190;-73
2022/12/09 00:25:37;;;;;;;94.97;27.43;;;;;;;-0.96;100.00;100855.16;5003529;28;20195;-72
2022/12/09 00:28:03;;;;;;;85.60;27.60;;;;;;;-0.94;100.00;100864.53;4999765;28;20208;-71
2022/12/09 00:30:28;;;;;;;108.23;26.20;;;;;;;-0.92;100.00;100864.63;5004021;28;20298;-75
2022/12/09 00:32:54;;;;;;;81.83;27.83;;;;;;;-0.87;100.00;100863.28;4999577;28;20188;-76
2022/12/09 00:35:19;;;;;;;93.73;27.77;;;;;;;-0.84;100.00;100861.81;5015127;28;20211;-74
2022/12/09 00:37:45;;;;;;;86.57;28.27;;;;;;;-0.80;100.00;100856.22;5013134;28;20207;-73
2022/12/09 00:40:12;;;;;;;93.23;27.03;;;;;;;-0.78;100.00;100854.66;5015457;28;20240;-75
2022/12/09 00:42:38;;;;;;;84.63;28.77;;;;;;;-0.76;100.00;100860.69;5018494;28;20191;-73
2022/12/09 00:45:04;;;;;;;128.50;32.50;;;;;;;-0.77;100.00;100858.06;5018176;28;20194;-73
2022/12/09 00:47:29;;;;;;;107.67;34.53;;;;;;;-0.69;100.00;100851.88;5012312;28;20182;-74
2022/12/09 00:49:55;;;;;;;106.13;34.90;;;;;;;-0.65;100.00;100844.63;5007622;28;20187;-73
2022/12/09 00:52:20;;;;;;;118.03;36.30;;;;;;;-0.61;100.00;100856.63;5000795;28;20235;-73
2022/12/09 00:54:46;;;;;;;114.30;30.37;;;;;;;-0.61;100.00;100855.72;5015458;28;20660;-75
2022/12/09 00:57:11;;;;;;;150.97;33.63;;;;;;;-0.62;100.00;100857.41;5020408;28;20691;-73
2022/12/09 00:59:37;;;;;;;121.03;32.20;;;;;;;-0.61;100.00;100853.22;5018947;28;20563;-73
2022/12/09 01:02:04;;;;;;;95.87;27.77;;;;;;;-0.60;100.00;100857.47;5018411;28;20217;-77
2022/12/09 01:04:29;;;;;;;134.10;30.37;;;;;;;-0.59;100.00;100865.09;5016253;28;20187;-73
2022/12/09 01:06:54;;;;;;;110.37;29.23;;;;;;;-0.56;100.00;100865.31;5015792;28;20186;-72
2022/12/09 01:09:20;;;;;;;89.53;28.20;;;;;;;-0.49;100.00;100864.06;5009281;28;20236;-74
2022/12/09 01:11:45;;;;;;;84.63;28.43;;;;;;;-0.48;100.00;100865.78;5009484;28;20238;-73
2022/12/09 01:14:11;;;;;;;85.93;29.10;;;;;;;-0.47;100.00;100865.88;5002827;28;20227;-73
2022/12/09 01:16:37;;;;;;;108.40;30.63;;;;;;;-0.45;100.00;100871.88;5001741;28;20306;-75
2022/12/09 01:19:05;;;;;;;119.90;30.53;;;;;;;-0.40;100.00;100869.66;5007279;28;20237;-73
2022/12/09 01:21:32;;;;;;;111.70;31.53;;;;;;;-0.36;100.00;100877.47;5010563;28;20632;-73
2022/12/09 01:23:58;;;;;;;109.43;30.67;;;;;;;-0.37;100.00;100874.84;5013217;28;20183;-74
2022/12/09 01:26:23;;;;;;;113.83;31.23;;;;;;;-0.34;100.00;100882.59;5003194;28;20237;-73
2022/12/09 01:28:51;;;;;;;122.13;35.03;;;;;;;-0.33;100.00;100887.72;5002294;28;20183;-74
2022/12/09 01:31:19;;;;;;;144.63;37.70;;;;;;;-0.31;100.00;100885.31;5013174;28;21024;-75
2022/12/09 01:33:46;;;;;;;136.53;37.27;;;;;;;-0.28;100.00;100883.88;5011032;28;20188;-74
2022/12/09 01:36:17;;;;;;;133.47;36.87;;;;;;;-0.25;100.00;100889.09;5017696;28;20190;-73
2022/12/09 01:38:44;;;;;;;161.33;40.30;;;;;;;-0.23;100.00;100885.00;5022393;28;20551;-73
2022/12/09 01:41:10;;;;;;;136.63;37.83;;;;;;;-0.19;100.00;100883.53;5006181;28;20206;-74
2022/12/09 01:43:37;;;;;;;153.77;37.63;;;;;;;-0.14;100.00;100882.19;5009077;28;20582;-75
2022/12/09 01:46:03;;;;;;;141.13;36.10;;;;;;;-0.11;100.00;100884.91;5014405;28;20194;-74
2022/12/09 01:48:35;;;;;;;139.60;34.70;;;;;;;-0.08;100.00;100883.44;5007465;28;20223;-73
2022/12/09 01:51:18;;;;;;;139.20;32.17;;;;;;;-0.10;100.00;100891.66;4993515;28;20207;-75
2022/12/09 01:53:46;;;;;;;135.03;30.83;;;;;;;-0.16;100.00;100889.66;5007591;28;20198;-74
2022/12/09 01:56:33;;;;;;;142.70;33.27;;;;;;;-0.13;100.00;100889.84;5006485;28;20281;-74
2022/12/09 01:59:10;;;;;;;141.50;33.97;;;;;;;-0.12;100.00;100890.72;5003887;28;20231;-75
2022/12/09 02:01:36;;;;;;;142.20;31.53;;;;;;;-0.08;100.00;100895.16;5014506;28;20207;-74
2022/12/09 02:04:03;;;;;;;128.70;31.53;;;;;;;-0.05;100.00;100892.81;5006459;28;20223;-75
2022/12/09 02:06:28;;;;;;;142.63;34.70;;;;;;;-0.03;100.00;100884.59;5009693;28;20232;-73
2022/12/09 02:08:55;;;;;;;157.90;34.40;;;;;;;0.01;100.00;100884.00;5005747;28;20175;-74
2022/12/09 02:11:33;;;;;;;143.40;33.20;;;;;;;0.03;100.00;100873.19;5006508;28;20199;-74
2022/12/09 02:14:09;;;;;;;141.57;32.30;;;;;;;0.08;100.00;100866.78;5006756;28;20270;-74
2022/12/09 02:16:53;;;;;;;152.20;32.23;;;;;;;0.11;100.00;100870.34;5006405;28;20218;-75
2022/12/09 02:19:40;;;;;;;142.10;31.80;;;;;;;0.13;100.00;100865.41;5010268;28;20191;-75
2022/12/09 02:22:08;;;;;;;147.77;31.77;;;;;;;0.12;100.00;100854.47;5014490;28;20278;-73
2022/12/09 02:24:44;;;;;;;153.87;33.23;;;;;;;0.14;100.00;100858.81;5020711;28;20180;-73
2022/12/09 02:27:19;;;;;;;156.40;34.23;;;;;;;0.15;100.00;100855.50;5020092;28;20214;-73
2022/12/09 02:30:00;;;;;;;151.73;32.60;;;;;;;0.21;100.00;100852.50;5017932;28;20194;-75
2022/12/09 02:32:44;;;;;;;158.73;32.90;;;;;;;0.23;100.00;100853.44;4996478;28;20194;-73
2022/12/09 02:35:26;;;;;;;163.30;33.93;;;;;;;0.23;100.00;100854.31;5006271;28;20198;-73
2022/12/09 02:38:18;;;;;;;156.17;33.60;;;;;;;0.25;100.00;100856.94;5013778;28;20581;-74
2022/12/09 02:40:59;;;;;;;204.00;35.93;;;;;;;0.24;100.00;100853.53;5013600;28;20207;-74
2022/12/09 02:43:30;;;;;;;156.47;34.77;;;;;;;0.29;100.00;100857.19;5016076;28;20214;-75
2022/12/09 02:45:58;;;;;;;168.17;33.70;;;;;;;0.32;100.00;100848.09;5020382;28;20234;-73
2022/12/09 02:48:48;;;;;;;159.97;33.10;;;;;;;0.34;100.00;100849.94;5009496;28;20178;-73
2022/12/09 02:51:17;;;;;;;178.90;36.07;;;;;;;0.38;100.00;100848.47;5021851;28;20206;-75
2022/12/09 02:53:47;;;;;;;191.40;35.07;;;;;;;0.39;100.00;100841.00;5014336;28;20526;-73
2022/12/09 02:56:14;;;;;;;158.03;34.40;;;;;;;0.40;100.00;100844.41;5016208;28;20222;-73
2022/12/09 02:58:40;;;;;;;177.20;34.23;;;;;;;0.41;100.00;100843.63;5012192;28;20217;-74
2022/12/09 03:01:18;;;;;;;189.13;34.23;;;;;;;0.44;100.00;100849.69;5010387;28;20212;-73
2022/12/09 03:03:44;;;;;;;148.63;33.87;;;;;;;0.46;100.00;100853.16;5005555;28;20204;-74
2022/12/09 03:06:16;;;;;;;147.37;34.60;;;;;;;0.49;100.00;100848.31;5007930;28;20187;-75
2022/12/09 03:08:44;;;;;;;143.43;33.33;;;;;;;0.52;100.00;100856.06;5009903;28;20206;-73
2022/12/09 03:11:16;;;;;;;153.93;34.73;;;;;;;0.49;100.00;100849.97;5010899;28;20218;-76
2022/12/09 03:14:02;;;;;;;146.23;34.83;;;;;;;0.49;100.00;100849.97;5008881;28;20281;-73
2022/12/09 03:16:30;;;;;;;155.07;35.10;;;;;;;0.52;100.00;100853.53;5012055;28;20206;-75
2022/12/09 03:19:04;;;;;;;140.40;35.67;;;;;;;0.52;100.00;100845.09;5010722;28;20546;-74
2022/12/09 03:21:33;;;;;;;157.47;38.43;;;;;;;0.55;100.00;100846.16;5018167;28;20215;-74
2022/12/09 03:24:00;;;;;;;138.80;34.57;;;;;;;0.59;100.00;100849.72;5011485;28;20219;-75
2022/12/09 03:26:31;;;;;;;159.47;35.97;;;;;;;0.62;100.00;100842.34;5006445;28;20202;-74
2022/12/09 03:28:59;;;;;;;155.97;36.63;;;;;;;0.63;100.00;100844.09;5004219;28;20183;-76
2022/12/09 03:31:29;;;;;;;136.83;33.03;;;;;;;0.65;100.00;100837.47;4999533;28;20212;-72
2022/12/09 03:34:01;;;;;;;165.70;35.10;;;;;;;0.65;100.00;100838.38;5005476;28;20207;-73
2022/12/09 03:36:32;;;;;;;143.40;34.70;;;;;;;0.68;100.00;100830.97;5009801;28;20198;-73
2022/12/09 03:39:00;;;;;;;165.60;35.10;;;;;;;0.68;100.00;100833.47;5006488;28;20211;-74
2022/12/09 03:41:29;;;;;;;143.77;37.17;;;;;;;0.70;100.00;100831.06;5009887;28;20221;-73
2022/12/09 03:44:17;;;;;;;157.60;37.07;;;;;;;0.69;100.00;100830.19;5007502;28;20190;-73
2022/12/09 03:46:43;;;;;;;141.57;36.17;;;;;;;0.70;100.00;100824.38;5003852;28;20211;-73
2022/12/09 03:49:10;;;;;;;157.87;39.10;;;;;;;0.68;100.00;100825.06;5009692;28;20198;-73
2022/12/09 03:51:41;;;;;;;153.63;38.07;;;;;;;0.67;100.00;100824.19;4996492;28;20259;-74
2022/12/09 03:54:22;;;;;;;155.13;36.97;;;;;;;0.66;100.00;100824.97;5008655;28;20644;-74
2022/12/09 03:56:52;;;;;;;153.77;37.20;;;;;;;0.66;100.00;100824.97;5025653;28;20217;-74
2022/12/09 03:59:18;;;;;;;155.03;37.17;;;;;;;0.69;100.00;100826.81;5012618;28;20275;-74
2022/12/09 04:01:44;;;;;;;147.67;36.47;;;;;;;0.70;100.00;100826.91;5010870;28;20302;-73
2022/12/09 04:04:12;;;;;;;148.73;35.10;;;;;;;0.73;100.00;100826.22;5005032;28;20195;-74
2022/12/09 04:06:38;;;;;;;151.23;35.37;;;;;;;0.75;100.00;100822.13;5010679;28;20286;-73
2022/12/09 04:09:04;;;;;;;135.10;33.77;;;;;;;0.74;100.00;100820.38;5006462;28;20190;-74
2022/12/09 04:11:31;;;;;;;149.07;34.73;;;;;;;0.78;100.00;100829.84;5015994;28;20218;-73
2022/12/09 04:13:56;;;;;;;144.97;36.70;;;;;;;0.77;100.00;100820.56;5005325;28;20206;-74
2022/12/09 04:16:22;;;;;;;129.77;33.63;;;;;;;0.80;100.00;100814.03;5006662;28;20215;-74
2022/12/09 04:18:47;;;;;;;138.13;34.90;;;;;;;0.82;100.00;100819.19;4993556;28;20223;-73
2022/12/09 04:21:13;;;;;;;124.40;33.93;;;;;;;0.84;100.00;100822.63;5009343;28;20299;-73
2022/12/09 04:23:39;;;;;;;136.80;36.37;;;;;;;0.85;100.00;100817.69;5006859;28;20190;-74
2022/12/09 04:26:05;;;;;;;136.37;35.80;;;;;;;0.84;100.00;100817.59;5007875;28;20211;-73
2022/12/09 04:28:31;;;;;;;140.10;35.10;;;;;;;0.80;100.00;100811.53;5000496;28;20194;-73
2022/12/09 04:30:57;;;;;;;153.93;36.30;;;;;;;0.82;100.00;100815.00;5006041;28;20235;-72
2022/12/09 04:33:25;;;;;;;132.17;35.57;;;;;;;0.81;100.00;100814.91;5003752;28;20183;-72
2022/12/09 04:35:50;;;;;;;142.70;34.47;;;;;;;0.84;100.00;100815.97;5005528;28;20679;-74
2022/12/09 04:38:16;;;;;;;123.87;33.43;;;;;;;0.82;100.00;100811.63;5010337;28;20210;-74
2022/12/09 04:40:41;;;;;;;127.00;32.77;;;;;;;0.84;100.00;100812.56;5002512;28;20286;-75
2022/12/09 04:43:07;;;;;;;131.80;34.73;;;;;;;0.82;100.00;100815.00;5007603;28;20659;-75
2022/12/09 04:45:33;;;;;;;139.37;32.23;;;;;;;0.80;100.00;100810.66;5007750;28;20202;-73
2022/12/09 04:47:59;;;;;;;118.07;33.33;;;;;;;0.78;100.00;100807.19;5004903;28;20207;-73
2022/12/09 04:50:25;;;;;;;115.03;33.17;;;;;;;0.77;100.00;100811.34;5003084;28;20234;-73
2022/12/09 04:52:50;;;;;;;113.30;31.70;;;;;;;0.74;100.00;100810.31;5007346;28;20283;-74
2022/12/09 04:55:15;;;;;;;119.93;33.27;;;;;;;0.72;100.00;100807.69;5014256;28;20625;-73
2022/12/09 04:57:41;;;;;;;112.60;31.73;;;;;;;0.65;100.00;100807.25;5006247;28;20210;-73
2022/12/09 05:00:09;;;;;;;104.53;30.93;;;;;;;0.60;100.00;100807.00;5005328;28;20188;-74
2022/12/09 05:02:34;;;;;;;122.27;31.53;;;;;;;0.56;100.00;100814.28;5006665;28;20175;-75
2022/12/09 05:05:00;;;;;;;115.93;31.77;;;;;;;0.54;100.00;100819.22;5012958;28;20209;-73
2022/12/09 05:07:27;;;;;;;114.07;32.50;;;;;;;0.45;100.00;100813.66;5005965;28;20184;-73
2022/12/09 05:09:52;;;;;;;105.47;31.27;;;;;;;0.42;100.00;100817.66;5009388;28;20191;-73
2022/12/09 05:12:18;;;;;;;100.03;29.70;;;;;;;0.40;100.00;100817.56;5005785;28;20215;-73
2022/12/09 05:14:43;;;;;;;110.57;30.73;;;;;;;0.40;100.00;100814.19;5004969;28;20187;-73
2022/12/09 05:17:09;;;;;;;103.07;31.43;;;;;;;0.40;100.00;100820.06;5006329;28;20709;-75
2022/12/09 05:19:34;;;;;;;94.13;30.53;;;;;;;0.43;100.00;100811.03;5006462;28;20191;-73
2022/12/09 05:21:59;;;;;;;109.43;32.43;;;;;;;0.44;100.00;100816.97;4999670;28;20266;-74
2022/12/09 05:24:25;;;;;;;105.40;35.97;;;;;;;0.43;100.00;100821.13;5001308;28;20183;-74
2022/12/09 05:26:50;;;;;;;102.33;33.73;;;;;;;0.40;100.00;100815.03;5020283;28;20195;-73
2022/12/09 05:29:16;;;;;;;105.40;33.80;;;;;;;0.43;100.00;100821.13;5004115;28;20242;-73
2022/12/09 05:31:42;;;;;;;113.17;35.13;;;;;;;0.47;100.00;100817.16;5004550;28;20234;-73
2022/12/09 05:34:07;;;;;;;99.43;31.37;;;;;;;0.47;100.00;100819.66;5005260;28;20190;-73
2022/12/09 05:36:32;;;;;;;100.37;31.13;;;;;;;0.53;100.00;100825.06;5006877;28;20268;-73
2022/12/09 05:38:58;;;;;;;99.60;33.43;;;;;;;0.55;100.00;100830.19;5009228;28;20206;-75
2022/12/09 05:41:24;;;;;;;103.37;33.97;;;;;;;0.43;100.00;100816.88;5012142;28;20219;-74
2022/12/09 05:43:50;;;;;;;97.53;33.67;;;;;;;0.46;100.00;100829.66;5004953;28;20183;-73
2022/12/09 05:46:16;;;;;;;102.07;33.73;;;;;;;0.39;100.00;100828.41;5006475;28;20227;-73
2022/12/09 05:48:42;;;;;;;101.53;33.30;;;;;;;0.42;100.00;100822.69;5008888;28;20215;-74
2022/12/09 05:51:14;;;;;;;110.07;33.23;;;;;;;0.41;100.00;100826.84;5006688;28;20207;-76
2022/12/09 05:53:40;;;;;;;111.80;34.47;;;;;;;0.38;100.00;100823.28;5002323;28;20547;-75
2022/12/09 05:56:06;;;;;;;118.07;34.17;;;;;;;0.26;100.00;100830.97;5005564;28;20217;-74
2022/12/09 05:58:32;;;;;;;152.53;37.57;;;;;;;0.20;100.00;100834.00;5002988;28;20226;-73
2022/12/09 06:01:08;;;;;;;116.53;31.70;;;;;;;0.15;100.00;100837.03;5014125;28;20297;-73
2022/12/09 06:03:34;;;;;;;126.00;34.60;;;;;;;0.15;100.00;100830.34;5008405;28;20277;-73
2022/12/09 06:06:11;;;;;;;137.73;36.27;;;;;;;0.14;100.00;100830.28;5006235;28;20241;-73
2022/12/09 06:08:37;;;;;;;112.03;33.23;;;;;;;0.16;100.00;100826.19;5004881;28;20187;-75
2022/12/09 06:11:03;;;;;;;139.00;33.60;;;;;;;0.11;100.00;100830.06;5007761;28;20249;-74
2022/12/09 06:13:28;;;;;;;132.70;35.90;;;;;;;0.13;100.00;100827.66;5004853;28;20245;-73
2022/12/09 06:15:54;;;;;;;98.53;31.37;;;;;;;0.15;100.00;100834.53;5005219;28;20326;-72
2022/12/09 06:18:19;;;;;;;102.40;32.37;;;;;;;0.14;100.00;100835.31;5013763;28;20581;-72
2022/12/09 06:20:45;;;;;;;94.07;33.07;;;;;;;0.15;100.00;100837.03;5006238;28;20212;-74
2022/12/09 06:23:10;;;;;;;87.07;32.33;;;;;;;0.19;100.00;100836.44;4991783;28;20199;-73
2022/12/09 06:25:36;;;;;;;94.97;35.17;;;;;;;0.18;100.00;100839.72;5007505;28;20294;-74
2022/12/09 06:28:01;;;;;;;103.27;32.13;;;;;;;0.17;100.00;100832.94;5003159;28;20207;-74
2022/12/09 06:30:27;;;;;;;99.37;31.73;;;;;;;0.17;100.00;100840.50;5006337;28;20234;-73
2022/12/09 06:32:52;;;;;;;92.67;31.93;;;;;;;0.17;100.00;100825.41;5002505;28;20551;-74
2022/12/09 06:35:18;;;;;;;95.37;31.93;;;;;;;0.14;100.00;100840.34;5013075;28;20310;-74
2022/12/09 06:37:43;;;;;;;85.87;30.97;;;;;;;0.21;100.00;100832.34;5000880;28;20211;-73
2022/12/09 06:40:09;;;;;;;81.47;30.07;;;;;;;0.22;100.00;100835.75;5004024;28;20198;-74
2022/12/09 06:42:35;;;;;;;86.27;29.90;;;;;;;0.17;100.00;100827.06;5007472;28;20195;-74
2022/12/09 06:45:00;;;;;;;79.27;29.87;;;;;;;0.23;100.00;100825.75;5002661;28;20201;-74
2022/12/09 06:47:26;;;;;;;76.20;27.77;;;;;;;0.22;100.00;100826.53;5007543;28;20188;-75
2022/12/09 06:49:51;;;;;;;83.87;30.53;;;;;;;0.18;100.00;100825.50;5001764;28;20188;-74
2022/12/09 06:52:17;;;;;;;82.57;29.63;;;;;;;0.19;100.00;100826.38;5007734;28;20305;-77
2022/12/09 06:54:42;;;;;;;81.37;30.70;;;;;;;0.19;100.00;100832.25;5002058;28;20553;-75
2022/12/09 06:57:07;;;;;;;78.93;28.87;;;;;;;0.21;100.00;100824.81;4998609;28;20630;-74
2022/12/09 06:59:33;;;;;;;71.80;29.27;;;;;;;0.22;100.00;100840.00;5005300;28;20191;-74
2022/12/09 07:01:58;;;;;;;85.60;29.60;;;;;;;0.23;100.00;100834.19;5008882;28;20213;-74
2022/12/09 07:04:24;;;;;;;81.77;28.60;;;;;;;0.23;100.00;100833.31;4999856;28;20187;-73
2022/12/09 07:06:49;;;;;;;77.90;30.37;;;;;;;0.27;100.00;100835.22;5003124;28;20612;-73
2022/12/09 07:09:19;;;;;;;79.20;29.50;;;;;;;0.31;100.00;100833.78;5003121;28;20282;-74
2022/12/09 07:11:45;;;;;;;81.07;28.97;;;;;;;0.31;100.00;100831.28;5000888;28;20304;-73
2022/12/09 07:14:12;;;;;;;74.50;28.97;;;;;;;0.29;100.00;100839.56;5014636;28;20661;-74
2022/12/09 07:16:38;;;;;;;76.60;27.80;;;;;;;0.31;100.00;100843.84;4990528;28;20231;-73
2022/12/09 07:19:05;;;;;;;76.60;29.67;;;;;;;0.31;100.00;100839.66;5002573;28;20194;-73
2022/12/09 07:21:32;;;;;;;82.50;29.53;;;;;;;0.28;100.00;100842.03;5000959;28;20212;-72
2022/12/09 07:24:01;;;;;;;77.23;29.23;;;;;;;0.29;100.00;100841.25;5000241;28;20775;-72
2022/12/09 07:26:32;;;;;;;73.07;29.37;;;;;;;0.31;100.00;100847.22;5013942;28;20206;-72
2022/12/09 07:29:00;;;;;;;77.07;29.13;;;;;;;0.35;100.00;100846.63;5004840;28;20187;-72
2022/12/09 07:31:27;;;;;;;74.47;30.03;;;;;;;0.28;100.00;100842.03;5004766;28;20203;-72
2022/12/09 07:33:54;;;;;;;67.67;27.37;;;;;;;0.32;100.00;100852.34;5017030;28;20660;-73
2022/12/09 07:36:21;;;;;;;72.00;28.63;;;;;;;0.32;100.00;100846.44;5008338;28;20290;-75
2022/12/09 07:38:47;;;;;;;76.17;27.23;;;;;;;0.31;100.00;100856.44;5003366;28;20226;-73
2022/12/09 07:41:16;;;;;;;73.20;27.77;;;;;;;0.33;100.00;100860.78;5006172;28;20208;-73
2022/12/09 07:43:45;;;;;;;71.67;28.27;;;;;;;0.39;100.00;100868.69;5003228;28;20184;-74
2022/12/09 07:46:13;;;;;;;64.63;27.90;;;;;;;0.42;100.00;100861.34;5001190;28;20202;-74
2022/12/09 07:48:38;;;;;;;74.53;28.37;;;;;;;0.43;100.00;100857.16;5001091;28;20641;-76
2022/12/09 07:51:04;;;;;;;69.93;28.10;;;;;;;0.44;100.00;100862.28;5004034;28;20230;-72
2022/12/09 07:53:33;;;;;;;75.00;28.50;;;;;;;0.48;100.00;100856.66;5003179;28;20199;-73
2022/12/09 07:56:03;;;;;;;69.77;27.63;;;;;;;0.48;100.00;100864.22;5003044;28;20215;-74
2022/12/09 07:58:29;;;;;;;69.53;28.67;;;;;;;0.49;100.00;100868.47;5014611;28;20211;-73
2022/12/09 08:00:54;;;;;;;67.93;26.93;;;;;;;0.49;100.00;100862.56;5000993;28;20213;-73
2022/12/09 08:03:20;;;;;;;69.43;28.37;;;;;;;0.48;100.00;100864.22;5008186;28;20261;-73
2022/12/09 08:05:47;;;;;;;68.33;27.97;;;;;;;0.52;100.00;100880.34;5000613;28;20214;-74
2022/12/09 08:08:12;;;;;;;72.27;27.90;;;;;;;0.55;100.00;100878.03;5004146;28;20187;-73
2022/12/09 08:10:38;;;;;;;65.93;27.47;;;;;;;0.57;100.00;100877.34;5005863;28;20215;-74
2022/12/09 08:13:03;;;;;;;65.40;26.90;;;;;;;0.59;100.00;100880.81;5013373;28;20200;-74
2022/12/09 08:15:28;;;;;;;64.80;27.40;;;;;;;0.61;100.00;100879.25;5009084;28;20187;-75
2022/12/09 08:17:54;;;;;;;64.47;27.80;;;;;;;0.63;100.00;100875.16;5019289;28;20211;-75
2022/12/09 08:20:19;;;;;;;59.60;26.07;;;;;;;0.65;100.00;100872.75;5005135;28;20212;-75
2022/12/09 08:22:45;;;;;;;64.47;26.30;;;;;;;0.62;100.00;100870.91;5010444;28;20621;-73
2022/12/09 08:25:10;;;;;;;67.83;26.07;;;;;;;0.67;100.00;100872.06;5004829;28;20660;-76
2022/12/09 08:27:35;;;;;;;62.07;25.87;;;;;;;0.73;100.00;100867.38;5009381;28;20200;-73
2022/12/09 08:30:01;;;;;;;59.83;26.40;;;;;;;0.75;100.00;100869.97;5010643;28;20183;-73
2022/12/09 08:32:26;;;;;;;68.70;28.60;;;;;;;0.73;100.00;100872.41;5000281;28;20986;-73
2022/12/09 08:34:52;;;;;;;62.80;27.50;;;;;;;0.75;100.00;100875.00;5001916;28;20218;-73
2022/12/09 08:37:17;;;;;;;63.17;25.57;;;;;;;0.78;100.00;100868.50;5004649;28;20298;-73
2022/12/09 08:39:43;;;;;;;61.87;26.80;;;;;;;0.75;100.00;100870.84;5015334;28;20287;-73
2022/12/09 08:42:08;;;;;;;59.50;25.10;;;;;;;0.81;100.00;100866.16;5002250;28;20218;-75
2022/12/09 08:44:33;;;;;;;56.77;26.17;;;;;;;0.89;100.00;100869.13;5008250;28;20274;-74
2022/12/09 08:46:59;;;;;;;58.17;25.63;;;;;;;0.85;100.00;100869.72;5009847;28;20563;-73
2022/12/09 08:49:26;;;;;;;58.23;26.27;;;;;;;0.88;100.00;100873.31;5003341;28;20195;-74
2022/12/09 08:51:52;;;;;;;56.80;24.60;;;;;;;0.93;100.00;100868.53;5003691;28;20261;-73
2022/12/09 08:54:18;;;;;;;54.67;24.13;;;;;;;0.98;100.00;100870.53;5016016;28;20242;-73
2022/12/09 08:56:45;;;;;;;56.23;24.97;;;;;;;1.02;100.00;100864.00;5007111;28;20230;-74
2022/12/09 08:59:11;;;;;;;53.73;24.33;;;;;;;1.08;100.00;100864.34;5001823;28;20203;-76
2022/12/09 09:01:36;;;;;;;56.83;24.73;;;;;;;1.16;100.00;100866.53;5004976;28;20199;-73
2022/12/09 09:04:13;;;;;;;53.00;24.73;;;;;;;1.18;100.00;100866.59;5008041;28;20526;-73
2022/12/09 09:06:41;;;;;;;50.87;23.80;;;;;;;1.10;100.00;100873.72;5010043;28;20573;-76
2022/12/09 09:09:09;;;;;;;53.93;24.27;;;;;;;1.20;100.00;100872.63;5007734;28;20187;-75
2022/12/09 09:11:34;;;;;;;50.33;23.00;;;;;;;1.28;100.00;100874.78;5014095;28;20203;-74
2022/12/09 09:14:02;;;;;;;50.33;21.87;;;;;;;1.34;100.00;100877.66;5005126;28;20196;-74
2022/12/09 09:16:28;;;;;;;50.77;24.13;;;;;;;1.35;100.00;100878.50;5008203;28;20240;-74
2022/12/09 09:18:53;;;;;;;46.53;22.40;;;;;;;1.32;100.00;100884.25;5013159;28;20624;-72
2022/12/09 09:21:21;;;;;;;46.47;22.63;;;;;;;1.41;100.00;100867.09;5005669;28;20249;-73
2022/12/09 09:23:47;;;;;;;50.23;22.43;;;;;;;1.51;100.00;100868.50;5000993;28;20183;-72
2022/12/09 09:26:15;;;;;;;44.87;21.77;;;;;;;1.65;100.00;100860.88;5009119;28;20206;-74
2022/12/09 09:28:41;;;;;;;45.43;22.57;;;;;;;1.83;100.00;100864.41;5008099;28;20626;-73
2022/12/09 09:31:10;;;;;;;46.57;22.37;;;;;;;2.06;100.00;100860.59;4995527;28;20219;-73
2022/12/09 09:33:35;;;;;;;41.20;20.70;;;;;;;2.16;100.00;100866.19;5009482;28;20202;-73
2022/12/09 09:36:04;;;;;;;40.10;20.63;;;;;;;2.32;100.00;100863.69;5011087;28;20202;-73
2022/12/09 09:38:31;;;;;;;36.60;19.40;;;;;;;2.47;100.00;100858.53;4993707;28;20235;-74
2022/12/09 09:40:59;;;;;;;39.23;19.53;;;;;;;2.33;100.00;100862.91;5008182;28;20207;-72
2022/12/09 09:43:28;;;;;;;33.10;18.47;;;;;;;2.40;100.00;100857.38;5000444;28;20587;-72
2022/12/09 09:45:56;;;;;;;36.40;19.30;;;;;;;2.74;100.00;100859.94;5007623;28;20270;-74
2022/12/09 09:48:27;;;;;;;32.60;17.93;;;;;;;3.04;100.00;100856.41;4998208;28;20183;-74
2022/12/09 09:51:02;;;;;;;31.97;17.80;;;;;;;2.77;99.59;100858.47;4998162;28;20221;-74
2022/12/09 09:53:30;;;;;;;30.20;17.60;;;;;;;2.77;100.00;100855.03;4997685;28;20218;-73
2022/12/09 09:56:01;;;;;;;29.00;17.70;;;;;;;2.58;99.79;100857.44;5000281;28;21107;-73
2022/12/09 09:58:54;;;;;;;32.43;18.27;;;;;;;2.46;99.68;100856.81;5012671;28;20219;-73
2022/12/09 10:01:24;;;;;;;31.67;16.77;;;;;;;2.31;100.00;100851.84;4999279;28;20225;-72
2022/12/09 10:04:01;;;;;;;32.13;19.13;;;;;;;2.33;100.00;100859.50;5011784;28;20207;-73
2022/12/09 10:06:50;;;;;;;32.77;18.00;;;;;;;2.31;100.00;100851.84;4995614;28;20277;-74
2022/12/09 10:09:25;;;;;;;31.30;17.50;;;;;;;2.32;100.00;100851.06;5001672;28;20223;-74
2022/12/09 10:12:02;;;;;;;33.70;18.47;;;;;;;2.35;100.00;100856.25;5003516;28;20225;-72
2022/12/09 10:14:34;;;;;;;31.30;17.90;;;;;;;2.33;100.00;100854.44;5002288;28;20672;-75
2022/12/09 10:17:26;;;;;;;32.00;17.60;;;;;;;2.12;100.00;100846.59;4995016;28;20223;-73
2022/12/09 10:19:57;;;;;;;33.70;17.47;;;;;;;2.24;100.00;100849.78;4996367;28;20194;-75
2022/12/09 10:22:30;;;;;;;32.00;18.23;;;;;;;2.26;100.00;100855.78;4996501;28;20208;-74
2022/12/09 10:24:58;;;;;;;35.27;19.10;;;;;;;2.29;100.00;100845.84;5005971;28;20202;-74
2022/12/09 10:27:23;;;;;;;37.93;19.17;;;;;;;2.38;100.00;100842.91;5004061;28;20311;-75
2022/12/09 10:29:58;;;;;;;32.93;18.47;;;;;;;2.38;100.00;100837.84;5008324;28;20644;-73
2022/12/09 10:32:27;;;;;;;35.93;18.33;;;;;;;2.38;100.00;100830.28;5007354;28;20223;-72
2022/12/09 10:34:53;;;;;;;34.77;18.13;;;;;;;2.44;100.00;100843.25;5021500;28;20202;-73
2022/12/09 10:37:24;;;;;;;33.03;18.40;;;;;;;2.37;100.00;100831.97;5001591;28;20244;-74
2022/12/09 10:39:55;;;;;;;31.07;18.23;;;;;;;2.40;100.00;100839.69;5007436;28;20206;-72
2022/12/09 10:45:07;;;;;;;31.27;17.20;;;;;;;2.27;100.00;100833.91;5000544;28;20194;-72
2022/12/09 10:47:33;;;;;;;36.27;19.53;;;;;;;2.19;100.00;100831.00;5001882;28;20199;-75
2022/12/09 10:49:58;;;;;;;34.77;17.87;;;;;;;2.26;100.00;100833.03;5008527;28;20750;-73
2022/12/09 10:52:30;;;;;;;35.33;18.83;;;;;;;2.25;100.00;100841.41;5007135;28;20305;-72
2022/12/09 10:54:56;;;;;;;33.10;18.57;;;;;;;2.32;100.00;100833.38;5012287;28;20285;-75
2022/12/09 10:57:25;;;;;;;35.47;18.97;;;;;;;2.28;100.00;100834.00;5006127;28;20628;-73
2022/12/09 11:00:04;;;;;;;35.23;19.37;;;;;;;2.36;100.00;100834.41;5016341;28;20742;-74
2022/12/09 11:02:31;;;;;;;37.53;19.80;;;;;;;2.34;100.00;100836.84;5007605;28;20290;-72
2022/12/09 11:05:21;;;;;;;34.17;18.97;;;;;;;2.39;100.00;100832.88;5003923;28;20242;-73
2022/12/09 11:07:48;;;;;;;38.43;19.50;;;;;;;2.42;100.00;100829.66;5009443;28;20191;-72
2022/12/09 11:10:25;;;;;;;32.77;18.73;;;;;;;2.46;100.00;100834.94;4997198;28;20231;-72
2022/12/09 11:13:07;;;;;;;32.30;18.50;;;;;;;2.48;100.00;100840.94;5001787;28;20191;-71